Time;durP1;ratioP1;P1;durP2;ratioP2;P2;SDS_P1;SDS_P2;PMS_P1;PMS_P2;Temp;Humidity;BMP_temperature;BMP_pressure;BME280_temperature;BME280_humidity;BME280_pressure;Samples;Min_cycle;Max_cycle;Signal;HPM_P1;HPM_P2
2021/11/21 00:01:32;;;;;;;18.13;12.17;;;;;;;8.19;100.00;101779.47;5133087;27;20262;-64
2021/11/21 00:03:58;;;;;;;21.10;13.63;;;;;;;8.19;100.00;101778.63;5133681;27;20159;-75
2021/11/21 00:06:23;;;;;;;23.87;13.13;;;;;;;8.14;100.00;101775.34;5133643;27;20202;-75
2021/11/21 00:08:49;;;;;;;18.33;12.50;;;;;;;8.13;100.00;101763.16;5133251;27;20171;-75
2021/11/21 00:11:15;;;;;;;21.03;12.47;;;;;;;8.08;100.00;101776.44;5127743;27;20204;-62
2021/11/21 00:13:42;;;;;;;18.80;13.53;;;;;;;8.10;100.00;101776.38;5121812;27;20182;-61
2021/11/21 00:16:07;;;;;;;19.93;12.93;;;;;;;8.09;100.00;101782.53;5112794;28;20478;-62
2021/11/21 00:18:33;;;;;;;20.57;13.70;;;;;;;8.05;100.00;101780.03;5118481;27;20462;-64
2021/11/21 00:21:00;;;;;;;21.57;12.53;;;;;;;8.06;100.00;101775.66;5133065;27;20637;-61
2021/11/21 00:23:25;;;;;;;19.03;11.27;;;;;;;8.04;100.00;101786.19;5132839;27;20794;-61
2021/11/21 00:25:51;;;;;;;17.10;11.00;;;;;;;8.05;100.00;101787.03;5133106;27;20430;-64
2021/11/21 00:28:17;;;;;;;18.53;10.67;;;;;;;8.04;100.00;101780.09;5132716;27;20162;-62
2021/11/21 00:30:42;;;;;;;19.43;11.27;;;;;;;8.05;100.00;101772.19;5113476;27;20213;-61
2021/11/21 00:33:07;;;;;;;17.00;11.33;;;;;;;8.04;100.00;101770.47;5132479;27;20522;-61
2021/11/21 00:35:33;;;;;;;16.40;10.50;;;;;;;7.98;100.00;101768.09;5132774;27;20194;-61
2021/11/21 00:37:59;;;;;;;15.70;10.80;;;;;;;8.02;100.00;101774.94;5132669;27;20161;-60
2021/11/21 00:40:25;;;;;;;21.57;11.00;;;;;;;7.94;100.00;101771.75;5132897;27;20162;-61
2021/11/21 00:42:50;;;;;;;18.17;10.87;;;;;;;7.92;100.00;101770.94;5132816;27;20227;-67
2021/11/21 00:45:16;;;;;;;18.00;11.20;;;;;;;7.89;100.00;101776.31;5132162;27;20416;-74
2021/11/21 00:47:42;;;;;;;19.70;10.90;;;;;;;7.84;100.00;101770.38;5131379;27;20521;-62
2021/11/21 00:50:09;;;;;;;20.20;12.10;;;;;;;7.82;100.00;101769.59;5131064;27;20646;-62
2021/11/21 00:52:35;;;;;;;16.17;10.50;;;;;;;7.89;100.00;101765.00;5144504;27;20550;-63
2021/11/21 00:57:38;;;;;;;14.93;10.43;;;;;;;7.90;100.00;101770.16;5137156;27;20468;-62
2021/11/21 01:00:08;;;;;;;15.97;9.80;;;;;;;7.89;100.00;101772.84;5132310;27;20400;-63
2021/11/21 01:02:36;;;;;;;16.17;11.23;;;;;;;7.87;100.00;101767.69;5132115;27;20408;-60
2021/11/21 01:05:01;;;;;;;18.27;11.07;;;;;;;7.90;100.00;101770.16;5132296;27;20469;-63
2021/11/21 01:07:27;;;;;;;15.97;10.50;;;;;;;7.92;100.00;101759.63;5131600;27;20420;-66
2021/11/21 01:09:52;;;;;;;14.53;9.83;;;;;;;7.89;100.00;101772.84;5132499;27;20292;-62
2021/11/21 01:12:18;;;;;;;13.80;9.27;;;;;;;7.90;100.00;101764.06;5131248;27;20181;-64
2021/11/21 01:14:43;;;;;;;14.57;9.27;;;;;;;7.91;100.00;101769.25;5132027;27;20201;-61
2021/11/21 01:17:09;;;;;;;13.63;9.30;;;;;;;7.95;100.00;101767.38;5132305;27;20155;-67
2021/11/21 01:19:34;;;;;;;13.93;9.10;;;;;;;7.98;100.00;101760.25;5132357;27;20154;-70
2021/11/21 01:22:01;;;;;;;15.43;10.33;;;;;;;8.03;100.00;101752.22;5131749;27;20185;-63
2021/11/21 01:24:26;;;;;;;14.80;8.87;;;;;;;7.99;100.00;101756.72;5132596;27;20181;-64
2021/11/21 01:26:52;;;;;;;15.67;10.03;;;;;;;7.93;100.00;101749.09;5131911;27;20935;-64
2021/11/21 01:29:17;;;;;;;15.27;9.13;;;;;;;7.89;100.00;101744.91;5130384;27;20656;-63
2021/11/21 01:31:47;;;;;;;15.97;10.17;;;;;;;7.85;100.00;101752.94;5132286;27;20150;-63
2021/11/21 01:34:13;;;;;;;17.83;12.73;;;;;;;7.80;100.00;101755.75;5131894;27;20154;-61
2021/11/21 01:36:39;;;;;;;25.83;19.10;;;;;;;7.77;100.00;101750.63;5131666;28;20567;-62
2021/11/21 01:39:04;;;;;;;41.30;28.93;;;;;;;7.75;100.00;101748.06;5131587;28;20416;-62
2021/11/21 01:41:30;;;;;;;47.63;34.03;;;;;;;7.71;100.00;101754.34;5110399;27;20222;-62
2021/11/21 01:43:55;;;;;;;39.70;27.80;;;;;;;7.69;100.00;101742.22;5108921;28;20245;-62
2021/11/21 01:46:31;;;;;;;40.00;25.73;;;;;;;7.71;100.00;101746.50;5108822;28;20190;-62
2021/11/21 01:48:56;;;;;;;28.20;17.00;;;;;;;7.76;100.00;101741.91;5125208;28;20180;-62
2021/11/21 01:51:22;;;;;;;22.50;14.80;;;;;;;7.73;100.00;101744.66;5129080;28;20412;-62
2021/11/21 01:53:47;;;;;;;20.73;14.23;;;;;;;7.74;100.00;101745.50;5129449;28;20194;-62
2021/11/21 01:56:12;;;;;;;23.30;13.50;;;;;;;7.76;100.00;101749.75;5129320;28;20186;-62
2021/11/21 01:58:38;;;;;;;25.30;13.30;;;;;;;7.81;100.00;101746.97;5129002;28;20170;-62
2021/11/21 02:01:04;;;;;;;18.37;12.27;;;;;;;7.85;100.00;101743.31;5113350;28;20230;-62
2021/11/21 02:03:29;;;;;;;19.10;12.27;;;;;;;7.85;100.00;101755.53;5110109;28;20424;-63
2021/11/21 02:05:55;;;;;;;15.80;10.13;;;;;;;7.91;100.00;101747.47;5128089;28;20187;-62
2021/11/21 02:08:20;;;;;;;19.67;13.63;;;;;;;7.86;100.00;101738.94;5129243;28;20182;-62
2021/11/21 02:10:46;;;;;;;24.20;13.30;;;;;;;7.89;100.00;101733.59;5129431;28;20257;-63
2021/11/21 02:13:12;;;;;;;22.40;12.27;;;;;;;7.92;100.00;101731.69;5129887;28;20174;-62
2021/11/21 02:15:41;;;;;;;19.37;13.10;;;;;;;7.89;100.00;101737.06;5128520;28;20570;-63
2021/11/21 02:18:07;;;;;;;16.63;10.83;;;;;;;7.93;100.00;101730.78;5129152;28;20163;-63
2021/11/21 02:20:32;;;;;;;16.57;10.43;;;;;;;7.93;100.00;101738.63;5129069;28;20392;-62
2021/11/21 02:22:58;;;;;;;18.30;10.07;;;;;;;7.94;100.00;101727.28;5129106;27;20170;-62
2021/11/21 02:25:23;;;;;;;18.00;11.37;;;;;;;7.93;100.00;101735.16;5132406;27;20771;-62
2021/11/21 02:27:49;;;;;;;15.73;10.77;;;;;;;7.90;100.00;101732.69;5132059;27;20162;-63
2021/11/21 02:30:14;;;;;;;13.77;8.63;;;;;;;7.85;100.00;101734.63;5132553;27;20202;-62
2021/11/21 02:32:46;;;;;;;12.90;8.10;;;;;;;7.81;100.00;101736.50;5132904;27;20158;-62
2021/11/21 02:35:12;;;;;;;14.90;10.40;;;;;;;7.76;100.00;101741.06;5129694;27;20236;-63
2021/11/21 02:37:38;;;;;;;14.73;10.60;;;;;;;7.62;100.00;101741.59;5131039;27;20499;-62
2021/11/21 02:40:04;;;;;;;15.57;11.00;;;;;;;7.51;100.00;101736.78;5129359;27;20496;-65
2021/11/21 02:42:34;;;;;;;13.90;8.80;;;;;;;7.45;100.00;101734.41;5127821;27;20280;-63
2021/11/21 02:45:00;;;;;;;15.03;9.53;;;;;;;7.43;100.00;101740.59;5129025;27;20412;-64
2021/11/21 02:47:32;;;;;;;14.13;9.63;;;;;;;7.41;100.00;101742.44;5130652;27;20412;-62
2021/11/21 02:49:58;;;;;;;14.83;8.83;;;;;;;7.34;100.00;101733.97;5129071;27;20435;-65
2021/11/21 02:52:24;;;;;;;19.13;12.50;;;;;;;7.24;100.00;101724.72;5130386;27;20448;-62
2021/11/21 02:54:55;;;;;;;15.50;11.50;;;;;;;7.22;100.00;101731.78;5131008;27;20447;-62
2021/11/21 02:57:22;;;;;;;14.70;9.00;;;;;;;7.16;100.00;101740.69;5111858;28;20171;-62
2021/11/21 02:59:49;;;;;;;16.13;9.80;;;;;;;7.11;100.00;101740.03;5112033;28;20389;-62
2021/11/21 03:02:18;;;;;;;18.10;12.97;;;;;;;7.08;100.00;101739.28;5116613;27;20396;-62
2021/11/21 03:04:46;;;;;;;15.57;10.50;;;;;;;7.09;100.00;101739.22;5131826;27;21192;-63
2021/11/21 03:07:12;;;;;;;24.70;14.23;;;;;;;7.02;100.00;101735.13;5130710;27;20427;-63
2021/11/21 03:09:39;;;;;;;15.60;9.23;;;;;;;7.03;100.00;101731.63;5132129;27;20400;-63
2021/11/21 03:12:05;;;;;;;17.63;12.10;;;;;;;6.98;100.00;101733.53;5132386;27;20170;-63
2021/11/21 03:14:31;;;;;;;18.60;12.00;;;;;;;6.96;100.00;101730.13;5130907;27;20427;-63
2021/11/21 03:16:57;;;;;;;19.97;12.67;;;;;;;6.92;100.00;101734.59;5131756;27;20411;-63
2021/11/21 03:19:23;;;;;;;26.30;14.63;;;;;;;6.94;100.00;101737.16;5131415;27;20239;-63
2021/11/21 03:21:49;;;;;;;19.77;13.80;;;;;;;6.83;100.00;101726.25;5131239;27;20411;-62
2021/11/21 03:24:14;;;;;;;23.90;13.03;;;;;;;6.79;100.00;101730.69;5131215;27;20982;-62
2021/11/21 03:26:40;;;;;;;21.43;14.23;;;;;;;6.73;100.00;101725.72;5131352;27;20904;-62
2021/11/21 03:29:06;;;;;;;21.80;14.63;;;;;;;6.65;100.00;101726.00;5131066;27;20198;-63
2021/11/21 03:31:33;;;;;;;19.90;13.47;;;;;;;6.68;100.00;101714.56;5131797;27;20464;-62
2021/11/21 03:34:01;;;;;;;22.63;14.00;;;;;;;6.67;100.00;101724.16;5130990;27;20163;-62
2021/11/21 03:36:28;;;;;;;25.53;13.60;;;;;;;6.64;100.00;101719.03;5129940;27;20451;-62
2021/11/21 03:38:53;;;;;;;24.00;13.80;;;;;;;6.65;100.00;101717.31;5123177;27;20433;-63
2021/11/21 03:41:18;;;;;;;22.87;14.80;;;;;;;6.61;100.00;101724.38;5130290;27;20443;-62
2021/11/21 03:43:44;;;;;;;21.60;14.80;;;;;;;6.62;100.00;101723.47;5137446;27;20626;-62
2021/11/21 03:46:10;;;;;;;19.40;13.57;;;;;;;6.60;100.00;101721.81;5137320;27;20176;-62
2021/11/21 03:48:35;;;;;;;25.37;15.40;;;;;;;6.60;100.00;101719.22;5128988;27;20171;-62
2021/11/21 03:51:01;;;;;;;20.13;14.60;;;;;;;6.60;100.00;101719.22;5130823;27;20208;-62
2021/11/21 03:53:26;;;;;;;23.47;14.83;;;;;;;6.57;100.00;101714.94;5130693;27;20159;-62
2021/11/21 03:55:52;;;;;;;21.73;12.73;;;;;;;6.51;100.00;101712.56;5143336;27;20218;-62
2021/11/21 03:58:17;;;;;;;21.00;12.47;;;;;;;6.44;100.00;101711.06;5127972;27;20170;-62
2021/11/21 04:00:46;;;;;;;23.30;13.50;;;;;;;6.47;100.00;101713.53;5129846;27;20167;-63
2021/11/21 04:03:17;;;;;;;23.30;14.40;;;;;;;6.48;100.00;101709.16;5130778;27;20170;-62
2021/11/21 04:05:42;;;;;;;23.97;13.87;;;;;;;6.52;100.00;101713.41;5122246;27;20507;-62
2021/11/21 04:08:08;;;;;;;22.17;13.00;;;;;;;6.53;100.00;101710.72;5130433;27;20521;-63
2021/11/21 04:10:34;;;;;;;20.80;11.83;;;;;;;6.56;100.00;101708.00;5135973;27;20170;-63
2021/11/21 04:13:00;;;;;;;22.30;13.67;;;;;;;6.57;100.00;101716.69;5127660;27;20177;-63
2021/11/21 04:15:27;;;;;;;17.73;12.17;;;;;;;6.54;100.00;101711.56;5129674;27;20198;-63
2021/11/21 04:17:52;;;;;;;18.80;11.93;;;;;;;6.53;100.00;101713.34;5129974;27;20404;-63
2021/11/21 04:20:18;;;;;;;20.80;12.53;;;;;;;6.57;100.00;101711.47;5138187;27;20469;-62
2021/11/21 04:22:43;;;;;;;20.90;12.47;;;;;;;6.61;100.00;101705.25;5129258;27;20174;-63
2021/11/21 04:25:10;;;;;;;19.73;12.60;;;;;;;6.60;100.00;101708.75;5128420;27;20179;-62
2021/11/21 04:27:36;;;;;;;23.20;12.47;;;;;;;6.64;100.00;101708.59;5128888;27;20177;-62
2021/11/21 04:30:03;;;;;;;21.43;12.20;;;;;;;6.62;100.00;101718.25;5129939;27;20459;-62
2021/11/21 04:32:32;;;;;;;19.53;12.90;;;;;;;6.63;100.00;101716.47;5129739;27;20416;-62
2021/11/21 04:34:58;;;;;;;21.33;13.20;;;;;;;6.63;100.00;101717.31;5129987;27;20452;-62
2021/11/21 04:37:24;;;;;;;19.30;12.70;;;;;;;6.64;100.00;101715.56;5130058;27;20408;-62
2021/11/21 04:39:49;;;;;;;20.30;13.03;;;;;;;6.64;100.00;101708.59;5137680;27;20400;-63
2021/11/21 04:42:16;;;;;;;19.23;12.57;;;;;;;6.61;100.00;101713.94;5129928;27;20170;-63
2021/11/21 04:44:43;;;;;;;20.03;13.10;;;;;;;6.60;100.00;101712.22;5127751;27;20182;-63
2021/11/21 04:47:10;;;;;;;25.30;14.27;;;;;;;6.55;100.00;101711.53;5128525;27;20412;-62
2021/11/21 04:49:35;;;;;;;22.60;12.97;;;;;;;6.55;100.00;101721.97;5124753;27;20951;-63
2021/11/21 04:52:01;;;;;;;23.50;13.73;;;;;;;6.51;100.00;101717.78;5128583;27;20463;-62
2021/11/21 04:54:26;;;;;;;19.03;12.77;;;;;;;6.52;100.00;101716.84;5129537;27;20201;-62
2021/11/21 04:56:52;;;;;;;26.13;13.37;;;;;;;6.54;100.00;101715.03;5131805;27;20577;-62
2021/11/21 04:59:18;;;;;;;25.70;13.70;;;;;;;6.55;100.00;101718.50;5134538;27;20263;-63
2021/11/21 05:01:44;;;;;;;21.23;14.00;;;;;;;6.51;100.00;101717.78;5129193;27;20416;-62
2021/11/21 05:04:10;;;;;;;23.70;16.37;;;;;;;6.50;100.00;101718.69;5129057;27;20533;-63
2021/11/21 05:06:36;;;;;;;24.13;15.87;;;;;;;6.53;100.00;101712.50;5128639;27;20423;-63
2021/11/21 05:09:04;;;;;;;25.50;18.70;;;;;;;6.49;100.00;101716.94;5129421;27;20412;-63
2021/11/21 05:11:29;;;;;;;33.00;19.27;;;;;;;6.40;100.00;101710.28;5128870;27;20416;-64
2021/11/21 05:13:55;;;;;;;31.50;23.17;;;;;;;6.45;100.00;101711.91;5138637;27;20419;-62
2021/11/21 05:16:21;;;;;;;39.07;19.37;;;;;;;6.42;100.00;101709.38;5132845;27;20208;-63
2021/11/21 05:18:46;;;;;;;27.60;18.97;;;;;;;6.42;100.00;101712.00;5127089;27;20159;-62
2021/11/21 05:21:12;;;;;;;32.87;17.80;;;;;;;6.38;100.00;101712.09;5130531;27;20676;-63
2021/11/21 05:23:38;;;;;;;30.83;18.53;;;;;;;6.41;100.00;101713.75;5135961;27;20174;-63
2021/11/21 05:26:03;;;;;;;29.50;17.07;;;;;;;6.34;100.00;101718.31;5128213;27;20190;-63
2021/11/21 05:28:30;;;;;;;34.67;20.30;;;;;;;6.37;100.00;101720.84;5136684;27;20218;-62
2021/11/21 05:30:55;;;;;;;33.67;18.43;;;;;;;6.45;100.00;101727.56;5131232;27;20218;-62
2021/11/21 05:33:21;;;;;;;29.47;17.53;;;;;;;6.48;100.00;101728.28;5137240;27;20418;-63
2021/11/21 05:35:46;;;;;;;42.10;27.97;;;;;;;6.46;100.00;101734.47;5131679;27;20185;-64
2021/11/21 05:38:12;;;;;;;26.20;18.20;;;;;;;6.54;100.00;101733.31;5132572;27;20174;-64
2021/11/21 05:40:38;;;;;;;26.77;18.53;;;;;;;6.51;100.00;101735.19;5133942;27;20190;-66
2021/11/21 05:43:03;;;;;;;34.57;18.70;;;;;;;6.50;100.00;101736.94;5131337;28;20230;-66
2021/11/21 05:45:29;;;;;;;32.83;20.97;;;;;;;6.54;100.00;101737.69;5131223;28;20258;-65
2021/11/21 05:47:55;;;;;;;29.33;19.77;;;;;;;6.52;100.00;101740.34;5130856;28;20220;-67
2021/11/21 05:50:21;;;;;;;32.80;22.37;;;;;;;6.52;100.00;101742.13;5131089;28;20400;-66
2021/11/21 05:52:49;;;;;;;33.90;21.50;;;;;;;6.52;100.00;101752.56;5131680;28;20424;-64
2021/11/21 05:55:17;;;;;;;32.30;22.47;;;;;;;6.53;100.00;101746.44;5131144;27;20193;-66
2021/11/21 05:57:43;;;;;;;32.00;22.03;;;;;;;6.54;100.00;101745.53;5131050;27;20456;-64
2021/11/21 06:00:12;;;;;;;36.03;24.57;;;;;;;6.51;100.00;101740.41;5134843;27;20412;-65
2021/11/21 06:02:38;;;;;;;48.83;28.50;;;;;;;6.53;100.00;101746.44;5135869;27;20411;-66
2021/11/21 06:05:05;;;;;;;48.83;30.70;;;;;;;6.55;100.00;101740.25;5134556;27;20408;-64
2021/11/21 06:07:30;;;;;;;40.30;23.73;;;;;;;6.55;100.00;101735.03;5134666;27;20782;-65
2021/11/21 06:09:56;;;;;;;45.73;29.10;;;;;;;6.54;100.00;101735.06;5135504;27;20396;-65
2021/11/21 06:12:21;;;;;;;44.30;29.67;;;;;;;6.59;100.00;101736.63;5135574;27;20162;-66
2021/11/21 06:14:47;;;;;;;35.10;24.27;;;;;;;6.66;100.00;101737.28;5135217;27;20174;-64
2021/11/21 06:17:12;;;;;;;30.00;20.47;;;;;;;6.71;100.00;101735.34;5134918;27;20170;-63
2021/11/21 06:19:39;;;;;;;31.93;21.70;;;;;;;6.74;100.00;101732.66;5135201;27;20158;-64
2021/11/21 06:22:05;;;;;;;30.07;19.33;;;;;;;6.86;100.00;101731.34;5134752;27;20568;-64
2021/11/21 06:24:30;;;;;;;28.23;19.53;;;;;;;6.85;100.00;101725.28;5135463;27;20794;-64
2021/11/21 06:26:56;;;;;;;33.33;16.23;;;;;;;6.91;100.00;101722.44;5139691;27;20945;-64
2021/11/21 06:29:23;;;;;;;29.60;18.30;;;;;;;6.99;100.00;101723.94;5134413;27;20667;-65
2021/11/21 06:31:49;;;;;;;24.30;16.43;;;;;;;7.05;100.00;101728.94;5134726;27;20400;-65
2021/11/21 06:34:16;;;;;;;27.60;16.87;;;;;;;7.13;100.00;101722.53;5134319;27;20427;-65
2021/11/21 06:36:42;;;;;;;21.17;11.27;;;;;;;7.24;100.00;101724.72;5134365;27;20508;-65
2021/11/21 06:39:08;;;;;;;29.20;17.37;;;;;;;7.32;100.00;101733.13;5134478;27;20431;-66
2021/11/21 06:41:35;;;;;;;26.10;17.87;;;;;;;7.43;100.00;101728.38;5138667;27;20439;-64
2021/11/21 06:44:01;;;;;;;25.80;14.60;;;;;;;7.56;100.00;101738.34;5133954;27;20411;-62
2021/11/21 06:46:27;;;;;;;29.23;17.93;;;;;;;7.66;100.00;101734.50;5133656;27;20412;-65
2021/11/21 06:48:52;;;;;;;26.43;18.77;;;;;;;7.70;100.00;101736.06;5134290;27;20449;-64
2021/11/21 06:51:19;;;;;;;25.83;18.90;;;;;;;7.77;100.00;101721.84;5134244;27;20166;-65
2021/11/21 06:53:48;;;;;;;23.53;15.60;;;;;;;7.81;100.00;101722.59;5134689;27;20171;-64
2021/11/21 06:56:14;;;;;;;26.20;18.73;;;;;;;7.86;100.00;101720.63;5133144;27;20447;-62
2021/11/21 06:58:39;;;;;;;33.50;18.53;;;;;;;7.99;100.00;101721.84;5134372;27;20415;-64
2021/11/21 07:01:05;;;;;;;24.83;18.27;;;;;;;8.03;100.00;101713.81;5134107;27;20962;-64
2021/11/21 07:03:30;;;;;;;23.83;15.33;;;;;;;8.06;100.00;101712.84;5133830;27;20170;-65
2021/11/21 07:05:56;;;;;;;27.13;19.30;;;;;;;8.14;100.00;101699.44;5134120;27;20162;-65
2021/11/21 07:08:21;;;;;;;24.37;15.77;;;;;;;8.24;100.00;101699.00;5133436;27;20538;-64
2021/11/21 07:10:47;;;;;;;29.07;18.80;;;;;;;8.28;100.00;101697.09;5132624;27;20166;-65
2021/11/21 07:13:13;;;;;;;22.07;15.60;;;;;;;8.37;100.00;101690.66;5136790;27;20174;-63
2021/11/21 07:15:38;;;;;;;24.03;15.23;;;;;;;8.44;100.00;101692.94;5133108;27;20447;-62
2021/11/21 07:18:04;;;;;;;27.47;17.47;;;;;;;8.56;100.00;101684.56;5133917;27;20583;-65
2021/11/21 07:20:29;;;;;;;23.93;16.50;;;;;;;8.64;100.00;101683.41;5133640;27;20173;-65
2021/11/21 07:22:55;;;;;;;24.23;16.30;;;;;;;8.76;100.00;101683.69;5134043;27;20177;-66
2021/11/21 07:25:22;;;;;;;23.70;16.93;;;;;;;8.79;100.00;101680.97;5133508;27;20185;-65
2021/11/21 07:27:49;;;;;;;25.20;17.10;;;;;;;8.91;100.00;101676.91;5134517;27;20242;-65
2021/11/21 07:30:17;;;;;;;22.00;14.43;;;;;;;8.96;100.00;101668.88;5133237;27;20448;-65
2021/11/21 07:32:43;;;;;;;21.87;15.83;;;;;;;9.06;100.00;101667.53;5132901;27;20437;-64
2021/11/21 07:35:11;;;;;;;21.23;12.17;;;;;;;9.17;100.00;101663.50;5137471;27;20816;-65
2021/11/21 07:37:36;;;;;;;22.80;15.17;;;;;;;9.25;100.00;101657.91;5133305;27;20810;-65
2021/11/21 07:40:03;;;;;;;21.70;13.97;;;;;;;9.39;100.00;101659.88;5133488;27;20404;-65
2021/11/21 07:42:29;;;;;;;24.90;15.17;;;;;;;9.47;100.00;101656.91;5140031;27;20752;-66
2021/11/21 07:44:55;;;;;;;25.30;16.50;;;;;;;9.54;100.00;101650.44;5132481;27;20436;-65
2021/11/21 07:47:21;;;;;;;23.87;15.03;;;;;;;9.65;100.00;101649.00;5133039;27;20170;-64
2021/11/21 07:49:47;;;;;;;23.67;16.47;;;;;;;9.73;100.00;101648.63;5132795;27;20532;-65
2021/11/21 07:52:12;;;;;;;26.53;18.70;;;;;;;9.88;100.00;101642.63;5132311;27;20945;-64
2021/11/21 07:54:38;;;;;;;20.13;15.43;;;;;;;10.00;100.00;101638.56;5132770;27;20584;-63
2021/11/21 07:57:04;;;;;;;24.60;16.50;;;;;;;10.13;100.00;101633.53;5134117;27;20149;-64
2021/11/21 07:59:29;;;;;;;20.20;15.03;;;;;;;10.30;100.00;101630.09;5132385;27;20163;-64
2021/11/21 08:01:55;;;;;;;22.77;15.47;;;;;;;10.38;100.00;101625.28;5132725;27;20400;-64
2021/11/21 08:04:20;;;;;;;20.93;16.03;;;;;;;10.51;100.00;101618.47;5132788;27;20197;-64
2021/11/21 08:06:46;;;;;;;17.50;10.83;;;;;;;10.57;100.00;101620.75;5132495;27;20198;-65
2021/11/21 08:09:12;;;;;;;19.70;13.40;;;;;;;10.66;100.00;101614.19;5132948;27;20158;-65
2021/11/21 08:11:37;;;;;;;17.83;13.40;;;;;;;10.75;100.00;101614.53;5131894;27;20166;-65
2021/11/21 08:14:03;;;;;;;20.23;13.90;;;;;;;10.88;100.00;101608.59;5132772;27;20158;-63
2021/11/21 08:16:29;;;;;;;21.63;13.63;;;;;;;11.00;100.00;101607.94;5132615;27;20547;-64
2021/11/21 08:18:54;;;;;;;19.80;13.20;;;;;;;11.15;100.00;101595.75;5131538;27;20154;-66
2021/11/21 08:21:20;;;;;;;21.80;13.43;;;;;;;11.24;100.00;101592.59;5132131;27;20223;-66
2021/11/21 08:23:45;;;;;;;18.23;12.30;;;;;;;11.35;100.00;101595.50;5131819;27;20578;-65
2021/11/21 08:26:11;;;;;;;16.43;12.50;;;;;;;11.47;100.00;101591.31;5131927;27;20159;-65
2021/11/21 08:28:39;;;;;;;16.70;11.30;;;;;;;11.56;100.00;101591.66;5132201;27;20317;-64
2021/11/21 08:31:08;;;;;;;17.10;11.50;;;;;;;11.69;100.00;101578.59;5113884;27;20199;-65
2021/11/21 08:33:34;;;;;;;14.90;10.90;;;;;;;11.90;100.00;101573.91;5131647;27;20408;-65
2021/11/21 08:36:00;;;;;;;18.07;11.70;;;;;;;11.99;100.00;101576.00;5132110;27;20500;-65
2021/11/21 08:38:26;;;;;;;15.63;10.03;;;;;;;12.01;100.00;101568.00;5132220;27;20487;-65
2021/11/21 08:40:53;;;;;;;14.73;10.20;;;;;;;12.07;100.00;101568.47;5131586;27;20427;-66
2021/11/21 08:43:18;;;;;;;13.27;9.97;;;;;;;12.16;100.00;101572.34;5131167;27;20431;-66
2021/11/21 08:45:45;;;;;;;13.90;10.30;;;;;;;12.22;100.00;101569.34;5117142;27;20167;-66
2021/11/21 08:48:12;;;;;;;14.53;10.83;;;;;;;12.32;100.00;101565.25;5131341;27;20501;-64
2021/11/21 08:50:39;;;;;;;15.40;10.93;;;;;;;12.55;100.00;101557.72;5130727;27;20412;-65
2021/11/21 08:53:05;;;;;;;19.30;11.67;;;;;;;12.73;100.00;101552.13;5131821;27;20853;-65
2021/11/21 08:55:31;;;;;;;17.00;9.63;;;;;;;12.83;100.00;101549.75;5131604;27;20451;-67
2021/11/21 08:57:57;;;;;;;14.53;11.10;;;;;;;12.79;100.00;101548.28;5130602;27;20166;-65
2021/11/21 09:00:24;;;;;;;21.40;15.23;;;;;;;12.80;100.00;101547.31;5133367;27;20397;-64
2021/11/21 09:02:50;;;;;;;19.70;14.33;;;;;;;12.91;100.00;101536.91;5133400;27;20416;-64
2021/11/21 09:05:15;;;;;;;21.00;13.07;;;;;;;12.93;100.00;101537.69;5112139;27;20423;-65
2021/11/21 09:07:43;;;;;;;17.77;12.50;;;;;;;12.95;100.00;101527.88;5131454;27;20503;-63
2021/11/21 09:10:13;;;;;;;16.37;11.73;;;;;;;13.25;100.00;101524.25;5132283;27;20162;-63
2021/11/21 09:12:41;;;;;;;20.00;11.27;;;;;;;13.48;100.00;101515.66;5136379;27;20420;-65
2021/11/21 09:15:08;;;;;;;15.27;11.37;;;;;;;13.92;100.00;101510.97;5130848;27;20463;-63
2021/11/21 09:17:34;;;;;;;14.30;9.77;;;;;;;14.46;100.00;101497.53;5131235;27;20436;-63
2021/11/21 09:20:00;;;;;;;15.67;10.97;;;;;;;15.03;100.00;101500.41;5130028;27;20499;-65
2021/11/21 09:22:25;;;;;;;15.53;10.87;;;;;;;15.53;100.00;101483.41;5134609;27;20501;-66
2021/11/21 09:24:51;;;;;;;16.33;11.80;;;;;;;16.79;100.00;101478.94;5131372;27;20162;-66
2021/11/21 09:27:16;;;;;;;14.13;10.20;;;;;;;17.78;100.00;101468.03;5129134;27;20329;-66
2021/11/21 09:29:42;;;;;;;13.60;10.30;;;;;;;18.96;100.00;101461.13;5130061;27;20205;-66
2021/11/21 09:32:11;;;;;;;17.73;11.93;;;;;;;18.39;100.00;101465.34;5130816;27;20177;-66
2021/11/21 09:34:38;;;;;;;16.83;11.20;;;;;;;18.74;100.00;101459.59;5130025;27;20748;-67
2021/11/21 09:37:05;;;;;;;13.47;10.30;;;;;;;19.99;100.00;101446.31;5129583;27;20512;-66
2021/11/21 09:39:30;;;;;;;16.00;11.10;;;;;;;20.81;100.00;101437.44;5130550;27;20447;-64
2021/11/21 09:41:56;;;;;;;14.80;8.73;;;;;;;20.61;100.00;101444.75;5134109;27;20443;-66
2021/11/21 09:44:23;;;;;;;14.10;9.20;;;;;;;21.04;100.00;101433.31;5130032;28;20155;-63
2021/11/21 09:46:49;;;;;;;10.77;7.97;;;;;;;20.45;100.00;101434.72;5130240;28;20167;-66
2021/11/21 09:49:16;;;;;;;11.13;7.70;;;;;;;19.90;100.00;101424.00;5130712;28;20404;-67
2021/11/21 09:51:41;;;;;;;15.53;7.43;;;;;;;19.63;100.00;101428.28;5133889;27;20741;-66
2021/11/21 09:54:07;;;;;;;9.10;7.00;;;;;;;19.15;100.00;101417.69;5130824;28;20408;-66
2021/11/21 09:56:33;;;;;;;10.60;6.93;;;;;;;18.80;100.00;101420.91;5130079;28;20532;-67
2021/11/21 09:58:59;;;;;;;13.17;7.30;;;;;;;18.99;100.00;101412.94;5130350;28;20334;-67
2021/11/21 10:01:31;;;;;;;7.77;6.07;;;;;;;19.06;100.00;101402.56;5129504;28;20257;-65
2021/11/21 10:03:57;;;;;;;9.90;6.77;;;;;;;19.34;100.00;101400.81;5130644;27;20177;-66
2021/11/21 10:06:36;;;;;;;12.30;6.27;;;;;;;19.89;100.00;101393.00;5130715;28;21050;-66
2021/11/21 10:09:08;;;;;;;10.13;6.47;;;;;;;20.36;100.00;101391.06;5130523;28;20158;-64
2021/11/21 10:12:03;;;;;;;9.13;6.53;;;;;;;20.50;100.00;101379.06;5122088;28;20526;-66
2021/11/21 10:14:31;;;;;;;8.73;5.90;;;;;;;20.84;100.00;101383.72;5130069;28;20439;-66
2021/11/21 10:16:57;;;;;;;7.53;5.30;;;;;;;21.30;100.00;101371.91;5129768;28;20451;-66
2021/11/21 10:19:22;;;;;;;8.77;5.50;;;;;;;22.17;100.00;101370.88;5129829;27;20404;-67
2021/11/21 10:21:58;;;;;;;8.10;6.47;;;;;;;22.24;100.00;101360.38;5129966;28;20622;-66
2021/11/21 10:24:32;;;;;;;12.07;6.50;;;;;;;22.99;100.00;101345.06;5129864;28;20188;-67
2021/11/21 10:27:03;;;;;;;9.90;5.37;;;;;;;21.63;100.00;101356.09;5129827;28;20428;-67
2021/11/21 10:29:35;;;;;;;7.93;5.90;;;;;;;22.10;100.00;101351.97;5129955;28;20540;-66
2021/11/21 10:32:12;;;;;;;9.03;5.87;;;;;;;22.09;100.00;101344.09;5133103;27;20417;-66
2021/11/21 10:34:46;;;;;;;11.37;7.33;;;;;;;22.55;100.00;101337.31;5130264;27;20442;-67
2021/11/21 10:37:12;;;;;;;11.37;6.03;;;;;;;23.30;100.00;101334.47;5114901;28;20845;-66
2021/11/21 10:39:44;;;;;;;13.93;5.80;;;;;;;24.04;100.00;101324.34;5130137;28;20392;-67
2021/11/21 10:42:10;;;;;;;7.10;5.00;;;;;;;23.76;100.00;101313.22;5129624;28;20162;-65
2021/11/21 10:44:35;;;;;;;7.03;5.33;;;;;;;22.95;100.00;101312.38;5132580;27;21957;-65
2021/11/21 10:47:01;;;;;;;7.67;5.47;;;;;;;23.38;100.00;101304.09;5133402;27;20215;-65
2021/11/21 10:49:36;;;;;;;9.63;5.30;;;;;;;23.07;100.00;101309.38;5133311;27;20167;-68
2021/11/21 10:52:05;;;;;;;11.80;5.57;;;;;;;23.39;100.00;101306.63;5133040;27;20154;-66
2021/11/21 10:54:51;;;;;;;12.83;6.80;;;;;;;23.31;100.00;101301.28;5132993;27;20416;-68
2021/11/21 10:57:25;;;;;;;6.83;4.70;;;;;;;24.51;97.39;101291.97;5133118;27;20506;-66
2021/11/21 10:59:58;;;;;;;8.23;5.20;;;;;;;24.88;90.08;101287.63;5127287;27;20412;-66
2021/11/21 11:02:32;;;;;;;9.60;5.53;;;;;;;23.95;95.38;101277.88;5130939;27;20403;-66
2021/11/21 11:05:06;;;;;;;6.30;4.57;;;;;;;23.02;100.00;101284.91;5132231;27;20427;-66
2021/11/21 11:07:53;;;;;;;7.07;5.07;;;;;;;23.61;100.00;101278.22;5131688;27;20412;-66
2021/11/21 11:10:31;;;;;;;8.90;4.70;;;;;;;23.67;100.00;101271.34;5128587;27;20865;-72